createdAt,value
2016-05-31T00:00:29.484Z,1001.15
2016-05-31T00:01:29.439Z,1001.2
2016-05-31T00:02:29.395Z,1001.17
2016-05-31T00:03:29.352Z,1001.22
2016-05-31T00:04:29.307Z,1001.24
2016-05-31T00:05:29.247Z,1001.22
2016-05-31T00:06:29.203Z,1001.26
2016-05-31T00:07:29.190Z,1001.21
2016-05-31T00:08:29.115Z,1001.25
2016-05-31T00:09:29.071Z,1001.3
2016-05-31T00:10:29.027Z,1001.24
2016-05-31T00:11:31.982Z,1001.26
2016-05-31T00:12:28.922Z,1001.25
2016-05-31T00:13:28.878Z,1001.27
2016-05-31T00:14:28.834Z,1001.25
2016-05-31T00:15:28.790Z,1001.29
2016-05-31T00:16:28.730Z,1001.23
2016-05-31T00:17:28.685Z,1001.25
2016-05-31T00:18:28.641Z,1001.23
2016-05-31T00:19:28.598Z,1001.26
2016-05-31T00:20:28.554Z,1001.32
2016-05-31T00:21:31.525Z,1001.27
2016-05-31T00:22:28.464Z,1001.26
2016-05-31T00:23:28.701Z,1001.26
2016-05-31T00:24:28.375Z,1001.3
2016-05-31T00:25:28.317Z,1001.3
2016-05-31T00:26:28.272Z,1001.28
2016-05-31T00:27:28.228Z,1001.28
2016-05-31T00:28:28.168Z,1001.31
2016-05-31T00:29:28.125Z,1001.3
2016-05-31T00:30:28.095Z,1001.28
2016-05-31T00:31:31.052Z,1001.32
2016-05-31T00:32:27.991Z,1001.34
2016-05-31T00:33:27.947Z,1001.29
2016-05-31T00:34:27.903Z,1001.27
2016-05-31T00:35:27.922Z,1001.27
2016-05-31T00:36:27.799Z,1001.32
2016-05-31T00:37:27.771Z,1001.33
2016-05-31T00:38:28.007Z,1001.31
2016-05-31T00:39:27.667Z,1001.29
2016-05-31T00:40:27.622Z,1001.29
2016-05-31T00:41:27.578Z,1001.27
2016-05-31T00:42:27.534Z,1001.27
2016-05-31T00:43:27.474Z,1001.27
2016-05-31T00:44:27.430Z,1001.24
2016-05-31T00:45:27.385Z,1001.29
2016-05-31T00:46:30.342Z,1001.27
2016-05-31T00:47:27.282Z,1001.26
2016-05-31T00:48:27.441Z,1001.31
2016-05-31T00:49:27.194Z,1001.28
2016-05-31T00:50:27.149Z,1001.27
2016-05-31T00:51:27.105Z,1001.28
2016-05-31T00:52:27.077Z,1001.27
2016-05-31T00:53:27.017Z,1001.3
2016-05-31T00:54:26.973Z,1001.34
2016-05-31T00:55:26.912Z,1001.29
2016-05-31T00:56:29.931Z,1001.31
2016-05-31T00:57:26.825Z,1001.31
2016-05-31T00:58:26.780Z,1001.31
2016-05-31T00:59:26.736Z,1001.25
2016-05-31T01:00:26.676Z,1001.25
2016-05-31T01:01:26.632Z,1001.25
2016-05-31T01:02:26.588Z,1001.25
2016-05-31T01:03:26.544Z,1001.28
2016-05-31T01:04:26.500Z,1001.28
2016-05-31T01:05:26.439Z,1001.26
2016-05-31T01:06:26.396Z,1001.29
2016-05-31T01:07:29.367Z,1001.31
2016-05-31T01:08:26.619Z,1001.29
2016-05-31T01:09:26.279Z,1001.32
2016-05-31T01:10:26.219Z,1001.32
2016-05-31T01:11:26.159Z,1001.34
2016-05-31T01:12:26.115Z,1001.29
2016-05-31T01:13:29.071Z,1001.29
2016-05-31T01:14:26.026Z,1001.26
2016-05-31T01:15:28.982Z,1001.31
2016-05-31T01:16:25.938Z,1001.26
2016-05-31T01:17:25.878Z,1001.32
2016-05-31T01:18:25.834Z,1001.34
2016-05-31T01:19:25.790Z,1001.31
2016-05-31T01:20:25.745Z,1001.31
2016-05-31T01:21:25.904Z,1001.32
2016-05-31T01:22:25.657Z,1001.33
2016-05-31T01:23:25.612Z,1001.32
2016-05-31T01:24:28.570Z,1001.34
2016-05-31T01:25:28.525Z,1001.36
2016-05-31T01:26:25.528Z,1001.31
2016-05-31T01:27:25.420Z,1001.32
2016-05-31T01:28:25.564Z,1001.35
2016-05-31T01:29:25.333Z,1001.36
2016-05-31T01:30:28.289Z,1001.34
2016-05-31T01:31:28.244Z,1001.33
2016-05-31T01:32:25.184Z,1001.37
2016-05-31T01:33:28.139Z,1001.32
2016-05-31T01:34:25.300Z,1001.37
2016-05-31T01:35:25.036Z,1001.36
2016-05-31T01:36:24.991Z,1001.36
2016-05-31T01:37:24.948Z,1001.35
2016-05-31T01:38:24.903Z,1001.4
2016-05-31T01:39:24.860Z,1001.36
2016-05-31T01:40:27.815Z,1001.37
2016-05-31T01:41:24.771Z,1001.38
2016-05-31T01:42:24.726Z,1001.41
2016-05-31T01:43:24.666Z,1001.37
2016-05-31T01:44:24.623Z,1001.4
2016-05-31T01:45:24.563Z,1001.41
2016-05-31T01:46:24.721Z,1001.41
2016-05-31T01:47:27.490Z,1001.39
2016-05-31T01:48:24.649Z,1001.44
2016-05-31T01:49:24.387Z,1001.45
2016-05-31T01:50:24.342Z,1001.42
2016-05-31T01:51:24.298Z,1001.45
2016-05-31T01:52:24.238Z,1001.41
2016-05-31T01:53:24.193Z,1001.45
2016-05-31T01:54:24.150Z,1001.45
2016-05-31T01:55:24.106Z,1001.48
2016-05-31T01:56:24.062Z,1001.49
2016-05-31T01:57:24.017Z,1001.51
2016-05-31T01:58:23.973Z,1001.5
2016-05-31T01:59:23.928Z,1001.51
2016-05-31T02:00:23.869Z,1001.49
2016-05-31T02:01:23.825Z,1001.52
2016-05-31T02:02:23.843Z,1001.51
2016-05-31T02:03:23.736Z,1001.5
2016-05-31T02:04:26.692Z,1001.54
2016-05-31T02:05:23.632Z,1001.55
2016-05-31T02:06:23.589Z,1001.58
2016-05-31T02:07:23.544Z,1001.6
2016-05-31T02:08:23.671Z,1001.59
2016-05-31T02:09:23.440Z,1001.66
2016-05-31T02:10:23.411Z,1001.65
2016-05-31T02:11:23.352Z,1001.7
2016-05-31T02:12:23.308Z,1001.68
2016-05-31T02:13:23.279Z,1001.66
2016-05-31T02:14:23.219Z,1001.69
2016-05-31T02:15:23.175Z,1001.7
2016-05-31T02:16:23.115Z,1001.66
2016-05-31T02:17:23.071Z,1001.62
2016-05-31T02:18:23.027Z,1001.68
2016-05-31T02:19:22.983Z,1001.66
2016-05-31T02:20:22.954Z,1001.77
2016-05-31T02:21:22.894Z,1001.68
2016-05-31T02:22:22.850Z,1001.67
2016-05-31T02:23:22.790Z,1001.7
2016-05-31T02:24:22.762Z,1001.69
2016-05-31T02:25:22.702Z,1001.61
2016-05-31T02:26:22.658Z,1001.69
2016-05-31T02:27:22.614Z,1001.72
2016-05-31T02:28:22.554Z,1001.65
2016-05-31T02:29:22.510Z,1001.69
2016-05-31T02:30:22.481Z,1001.68
2016-05-31T02:31:25.421Z,1001.67
2016-05-31T02:32:25.377Z,1001.65
2016-05-31T02:33:22.333Z,1001.69
2016-05-31T02:34:22.289Z,1001.67
2016-05-31T02:35:22.229Z,1001.66
2016-05-31T02:36:22.184Z,1001.68
2016-05-31T02:37:22.141Z,1001.72
2016-05-31T02:38:25.096Z,1001.72
2016-05-31T02:39:22.036Z,1001.75
2016-05-31T02:40:25.008Z,1001.7
2016-05-31T02:41:25.151Z,1001.74
2016-05-31T02:42:21.904Z,1001.75
2016-05-31T02:43:21.844Z,1001.72
2016-05-31T02:44:21.816Z,1001.81
2016-05-31T02:45:21.771Z,1001.78
2016-05-31T02:46:21.711Z,1001.77
2016-05-31T02:47:21.667Z,1001.79
2016-05-31T02:48:21.810Z,1001.8
2016-05-31T02:49:21.579Z,1001.78
2016-05-31T02:50:21.535Z,1001.75
2016-05-31T02:51:21.491Z,1001.78
2016-05-31T02:52:21.665Z,1001.84
2016-05-31T02:53:21.387Z,1001.81
2016-05-31T02:54:21.342Z,1001.85
2016-05-31T02:55:21.298Z,1001.84
2016-05-31T02:56:21.238Z,1001.87
2016-05-31T02:57:24.304Z,1001.89
2016-05-31T02:58:21.150Z,1001.85
2016-05-31T02:59:21.106Z,1001.87
2016-05-31T03:00:21.061Z,1001.86
2016-05-31T03:01:21.018Z,1001.84
2016-05-31T03:02:20.958Z,1001.88
2016-05-31T03:03:20.929Z,1001.91
2016-05-31T03:04:20.869Z,1001.94
2016-05-31T03:05:20.825Z,1001.92
2016-05-31T03:06:20.984Z,1001.97
2016-05-31T03:07:20.721Z,1001.99
2016-05-31T03:08:20.693Z,1001.99
2016-05-31T03:09:20.633Z,1001.98
2016-05-31T03:10:20.589Z,1002.03
2016-05-31T03:11:20.544Z,1001.99
2016-05-31T03:12:23.515Z,1002.04
2016-05-31T03:13:20.456Z,1002.08
2016-05-31T03:14:23.443Z,1002.05
2016-05-31T03:15:23.368Z,1002.13
2016-05-31T03:16:23.308Z,1002.15
2016-05-31T03:17:20.263Z,1002.18
2016-05-31T03:18:20.219Z,1002.17
2016-05-31T03:19:20.175Z,1002.2
2016-05-31T03:20:20.318Z,1002.21
2016-05-31T03:21:23.087Z,1002.22
2016-05-31T03:22:23.043Z,1002.2
2016-05-31T03:23:20.155Z,1002.17
2016-05-31T03:24:22.954Z,1002.16
2016-05-31T03:25:19.879Z,1002.17
2016-05-31T03:26:19.851Z,1002.17
2016-05-31T03:27:19.806Z,1002.16
2016-05-31T03:28:19.745Z,1002.17
2016-05-31T03:29:22.702Z,1002.15
2016-05-31T03:30:19.642Z,1002.19
2016-05-31T03:31:19.598Z,1002.2
2016-05-31T03:32:19.554Z,1002.18
2016-05-31T03:33:22.525Z,1002.19
2016-05-31T03:34:19.669Z,1002.24
2016-05-31T03:35:19.406Z,1002.23
2016-05-31T03:36:19.362Z,1002.24
2016-05-31T03:37:19.317Z,1002.28
2016-05-31T03:38:22.273Z,1002.3
2016-05-31T03:39:19.229Z,1002.35
2016-05-31T03:40:19.169Z,1002.27
2016-05-31T03:41:19.125Z,1002.32
2016-05-31T03:42:19.096Z,1002.31
2016-05-31T03:43:19.036Z,1002.35
2016-05-31T03:44:18.992Z,1002.33
2016-05-31T03:45:18.948Z,1002.31
2016-05-31T03:46:21.905Z,1002.33
2016-05-31T03:47:18.844Z,1002.33
2016-05-31T03:48:18.799Z,1002.36
2016-05-31T03:49:18.756Z,1002.4
2016-05-31T03:50:18.712Z,1002.35
2016-05-31T03:51:18.667Z,1002.37
2016-05-31T03:52:18.608Z,1002.38
2016-05-31T03:53:18.563Z,1002.41
2016-05-31T03:54:21.535Z,1002.43
2016-05-31T03:55:21.476Z,1002.42
2016-05-31T03:56:18.431Z,1002.41
2016-05-31T03:57:18.371Z,1002.45
2016-05-31T03:58:18.327Z,1002.39
2016-05-31T03:59:18.282Z,1002.41
2016-05-31T04:00:18.442Z,1002.41
2016-05-31T04:01:18.194Z,1002.41
2016-05-31T04:02:18.354Z,1002.4
2016-05-31T04:03:18.106Z,1002.43
2016-05-31T04:04:21.061Z,1002.47
2016-05-31T04:05:18.003Z,1002.46
2016-05-31T04:06:20.958Z,1002.48
2016-05-31T04:07:18.116Z,1002.52
2016-05-31T04:08:17.869Z,1002.48
2016-05-31T04:09:17.810Z,1002.52
2016-05-31T04:10:17.766Z,1002.49
2016-05-31T04:11:17.721Z,1002.52
2016-05-31T04:12:20.678Z,1002.49
2016-05-31T04:13:17.617Z,1002.51
2016-05-31T04:14:20.604Z,1002.53
2016-05-31T04:15:17.529Z,1002.55
2016-05-31T04:16:20.688Z,1002.55
2016-05-31T04:17:17.441Z,1002.58
2016-05-31T04:18:17.396Z,1002.59
2016-05-31T04:19:20.352Z,1002.61
2016-05-31T04:20:17.308Z,1002.61
2016-05-31T04:21:20.263Z,1002.65
2016-05-31T04:22:20.204Z,1002.65
2016-05-31T04:23:17.176Z,1002.71
2016-05-31T04:24:17.116Z,1002.68
2016-05-31T04:25:17.056Z,1002.72
2016-05-31T04:26:17.012Z,1002.73
2016-05-31T04:27:16.968Z,1002.73
2016-05-31T04:28:16.923Z,1002.74
2016-05-31T04:29:16.878Z,1002.7
2016-05-31T04:30:16.819Z,1002.74
2016-05-31T04:31:19.791Z,1002.73
2016-05-31T04:32:16.731Z,1002.72
2016-05-31T04:33:16.686Z,1002.71
2016-05-31T04:34:16.846Z,1002.75
2016-05-31T04:35:16.598Z,1002.77
2016-05-31T04:36:16.553Z,1002.8
2016-05-31T04:37:16.495Z,1002.8
2016-05-31T04:38:16.450Z,1002.78
2016-05-31T04:39:19.422Z,1002.82
2016-05-31T04:40:16.361Z,1002.81
2016-05-31T04:41:16.506Z,1002.79
2016-05-31T04:42:16.258Z,1002.86
2016-05-31T04:43:16.213Z,1002.84
2016-05-31T04:44:16.169Z,1002.86
2016-05-31T04:45:16.125Z,1002.87
2016-05-31T04:46:19.081Z,1002.9
2016-05-31T04:47:19.036Z,1002.93
2016-05-31T04:48:15.977Z,1002.96
2016-05-31T04:49:15.933Z,1002.97
2016-05-31T04:50:15.888Z,1002.96
2016-05-31T04:51:15.844Z,1002.98
2016-05-31T04:52:15.800Z,1003
2016-05-31T04:53:15.757Z,1002.98
2016-05-31T04:54:18.712Z,1002.97
2016-05-31T04:55:18.855Z,1002.99
2016-05-31T04:56:18.607Z,1003
2016-05-31T04:57:15.563Z,1002.93
2016-05-31T04:58:15.520Z,1002.97
2016-05-31T04:59:15.459Z,1002.97
2016-05-31T05:00:15.432Z,1002.96
2016-05-31T05:01:15.371Z,1003
2016-05-31T05:02:15.342Z,1002.96
2016-05-31T05:03:18.284Z,1002.99
2016-05-31T05:04:18.239Z,1003
2016-05-31T05:05:18.195Z,1003.03
2016-05-31T05:06:15.337Z,1003.01
2016-05-31T05:07:15.091Z,1002.99
2016-05-31T05:08:15.047Z,1003.05
2016-05-31T05:09:18.205Z,1003.07
2016-05-31T05:10:17.958Z,1003.1
2016-05-31T05:11:17.913Z,1003.1
2016-05-31T05:12:14.854Z,1003.1
2016-05-31T05:13:14.810Z,1003.1
2016-05-31T05:14:14.766Z,1003.18
2016-05-31T05:15:14.706Z,1003.14
2016-05-31T05:16:14.661Z,1003.13
2016-05-31T05:17:14.617Z,1003.17
2016-05-31T05:18:14.573Z,1003.19
2016-05-31T05:19:17.530Z,1003.16
2016-05-31T05:20:17.485Z,1003.17
2016-05-31T05:21:14.425Z,1003.15
2016-05-31T05:22:14.396Z,1003.14
2016-05-31T05:23:15.102Z,1003.14
2016-05-31T05:24:14.293Z,1003.17
2016-05-31T05:25:14.248Z,1003.13
2016-05-31T05:26:14.391Z,1003.14
2016-05-31T05:27:14.144Z,1003.13
2016-05-31T05:28:17.116Z,1003.13
2016-05-31T05:29:17.071Z,1003.19
2016-05-31T05:30:14.012Z,1003.19
2016-05-31T05:31:13.968Z,1003.2
2016-05-31T05:32:13.907Z,1003.18
2016-05-31T05:33:13.879Z,1003.2
2016-05-31T05:34:13.820Z,1003.21
2016-05-31T05:35:16.776Z,1003.21
2016-05-31T05:36:13.731Z,1003.23
2016-05-31T05:37:16.890Z,1003.23
2016-05-31T05:38:23.142Z,1003.26
2016-05-31T05:39:13.598Z,1003.29
2016-05-31T05:40:13.539Z,1003.29
2016-05-31T05:41:13.494Z,1003.31
2016-05-31T05:42:13.451Z,1003.32
2016-05-31T05:43:13.391Z,1003.26
2016-05-31T05:44:16.378Z,1003.31
2016-05-31T05:45:13.302Z,1003.31
2016-05-31T05:46:13.258Z,1003.31
2016-05-31T05:47:16.230Z,1003.29
2016-05-31T05:48:13.372Z,1003.35
2016-05-31T05:49:13.110Z,1003.35
2016-05-31T05:50:13.080Z,1003.32
2016-05-31T05:51:13.241Z,1003.32
2016-05-31T05:52:12.993Z,1003.34
2016-05-31T05:53:15.932Z,1003.39
2016-05-31T05:54:15.905Z,1003.35
2016-05-31T05:55:15.829Z,1003.38
2016-05-31T05:56:12.801Z,1003.31
2016-05-31T05:57:15.765Z,1003.41
2016-05-31T05:58:12.732Z,1003.41
2016-05-31T05:59:12.730Z,1003.47
2016-05-31T06:00:12.900Z,1003.48
2016-05-31T06:01:12.679Z,1003.47
2016-05-31T06:02:12.656Z,1003.53
2016-05-31T06:03:12.824Z,1003.47
2016-05-31T06:04:12.570Z,1003.56
2016-05-31T06:05:12.536Z,1003.59
2016-05-31T06:06:12.502Z,1003.59
2016-05-31T06:07:12.465Z,1003.56
2016-05-31T06:08:12.424Z,1003.63
2016-05-31T06:09:12.384Z,1003.58
2016-05-31T06:10:12.546Z,1003.6
2016-05-31T06:11:12.287Z,1003.54
2016-05-31T06:12:12.260Z,1003.54
2016-05-31T06:13:12.201Z,1003.54
2016-05-31T06:14:15.175Z,1003.57
2016-05-31T06:15:12.116Z,1003.56
2016-05-31T06:16:12.072Z,1003.57
2016-05-31T06:17:12.029Z,1003.58
2016-05-31T06:18:11.970Z,1003.62
2016-05-31T06:19:11.926Z,1003.56
2016-05-31T06:20:11.882Z,1003.62
2016-05-31T06:21:11.838Z,1003.53
2016-05-31T06:22:14.998Z,1003.6
2016-05-31T06:23:11.954Z,1003.54
2016-05-31T06:24:11.706Z,1003.54
2016-05-31T06:25:11.663Z,1003.57
2016-05-31T06:26:11.602Z,1003.58
2016-05-31T06:27:11.558Z,1003.61
2016-05-31T06:28:11.513Z,1003.67
2016-05-31T06:29:11.470Z,1003.78
2016-05-31T06:30:11.629Z,1003.72
2016-05-31T06:31:11.365Z,1003.68
2016-05-31T06:32:11.353Z,1003.74
2016-05-31T06:33:11.292Z,1003.79
2016-05-31T06:34:14.249Z,1003.78
2016-05-31T06:35:14.204Z,1003.78
2016-05-31T06:36:11.145Z,1003.79
2016-05-31T06:37:11.100Z,1003.8
2016-05-31T06:38:11.995Z,1003.86
2016-05-31T06:39:11.012Z,1003.86
2016-05-31T06:40:10.967Z,1003.92
2016-05-31T06:41:10.923Z,1003.93
2016-05-31T06:42:10.864Z,1003.96
2016-05-31T06:43:13.836Z,1003.95
2016-05-31T06:44:10.775Z,1004.03
2016-05-31T06:45:10.731Z,1004.04
2016-05-31T06:46:10.686Z,1004.05
2016-05-31T06:47:10.628Z,1004.1
2016-05-31T06:48:10.583Z,1004.08
2016-05-31T06:49:10.539Z,1004.06
2016-05-31T06:50:10.495Z,1004.08
2016-05-31T06:51:10.450Z,1004.14
2016-05-31T06:52:13.407Z,1004.09
2016-05-31T06:53:10.565Z,1004.12
2016-05-31T06:54:10.318Z,1004.12
2016-05-31T06:55:10.274Z,1004.12
2016-05-31T06:56:10.214Z,1004.11
2016-05-31T06:57:10.170Z,1004.15
2016-05-31T06:58:10.126Z,1004.11
2016-05-31T06:59:10.347Z,1004.13
2016-05-31T07:00:10.038Z,1004.14
2016-05-31T07:01:09.977Z,1004.1
2016-05-31T07:02:09.949Z,1004.15
2016-05-31T07:03:12.904Z,1004.19
2016-05-31T07:04:09.845Z,1004.22
2016-05-31T07:05:09.801Z,1004.28
2016-05-31T07:06:09.756Z,1004.25
2016-05-31T07:07:09.712Z,1004.32
2016-05-31T07:08:09.684Z,1004.37
2016-05-31T07:09:09.609Z,1004.39
2016-05-31T07:10:09.580Z,1004.39
2016-05-31T07:11:09.520Z,1004.31
2016-05-31T07:12:09.475Z,1004.41
2016-05-31T07:13:09.432Z,1004.43
2016-05-31T07:14:12.403Z,1004.51
2016-05-31T07:15:09.344Z,1004.37
2016-05-31T07:16:09.299Z,1004.43
2016-05-31T07:17:09.255Z,1004.45
2016-05-31T07:18:09.210Z,1004.43
2016-05-31T07:19:09.167Z,1004.44
2016-05-31T07:20:09.122Z,1004.5
2016-05-31T07:21:09.266Z,1004.48
2016-05-31T07:22:09.018Z,1004.56
2016-05-31T07:23:11.991Z,1004.52
2016-05-31T07:24:12.164Z,1004.57
2016-05-31T07:25:11.916Z,1004.59
2016-05-31T07:26:11.857Z,1004.61
2016-05-31T07:27:09.001Z,1004.7
2016-05-31T07:28:08.754Z,1004.63
2016-05-31T07:29:08.709Z,1004.68
2016-05-31T07:30:08.665Z,1004.65
2016-05-31T07:31:08.605Z,1004.68
2016-05-31T07:32:08.561Z,1004.73
2016-05-31T07:33:08.532Z,1004.75
2016-05-31T07:34:08.473Z,1004.74
2016-05-31T07:35:08.443Z,1004.78
2016-05-31T07:36:08.400Z,1004.74
2016-05-31T07:37:08.434Z,1004.76
2016-05-31T07:38:08.296Z,1004.74
2016-05-31T07:39:08.251Z,1004.73
2016-05-31T07:40:08.207Z,1004.7
2016-05-31T07:41:08.164Z,1004.69
2016-05-31T07:42:08.134Z,1004.71
2016-05-31T07:43:08.075Z,1004.7
2016-05-31T07:44:08.030Z,1004.72
2016-05-31T07:45:08.268Z,1004.71
2016-05-31T07:46:07.928Z,1004.76
2016-05-31T07:47:07.898Z,1004.72
2016-05-31T07:48:08.041Z,1004.65
2016-05-31T07:49:07.794Z,1004.68
2016-05-31T07:50:07.766Z,1004.66
2016-05-31T07:51:07.706Z,1004.62
2016-05-31T07:52:07.661Z,1004.62
2016-05-31T07:53:07.633Z,1004.61
2016-05-31T07:54:07.573Z,1004.68
2016-05-31T07:55:07.717Z,1004.66
2016-05-31T07:56:07.704Z,1004.65
2016-05-31T07:57:07.441Z,1004.74
2016-05-31T07:58:07.396Z,1004.68
2016-05-31T07:59:07.352Z,1004.7
2016-05-31T08:00:07.308Z,1004.63
2016-05-31T08:01:07.264Z,1004.69
2016-05-31T08:02:10.220Z,1004.65
2016-05-31T08:03:07.175Z,1004.64
2016-05-31T08:04:07.335Z,1004.65
2016-05-31T08:05:07.088Z,1004.64
2016-05-31T08:06:07.027Z,1004.61
2016-05-31T08:07:06.983Z,1004.65
2016-05-31T08:08:06.939Z,1004.61
2016-05-31T08:09:06.894Z,1004.62
2016-05-31T08:10:06.851Z,1004.62
2016-05-31T08:11:06.807Z,1004.66
2016-05-31T08:12:06.762Z,1004.69
2016-05-31T08:13:06.717Z,1004.7
2016-05-31T08:14:06.878Z,1004.68
2016-05-31T08:15:06.630Z,1004.7
2016-05-31T08:16:06.586Z,1004.77
2016-05-31T08:17:06.556Z,1004.69
2016-05-31T08:18:06.544Z,1004.72
2016-05-31T08:19:06.452Z,1004.75
2016-05-31T08:20:06.408Z,1004.78
2016-05-31T08:21:06.364Z,1004.79
2016-05-31T08:22:06.320Z,1004.82
2016-05-31T08:23:06.276Z,1004.84
2016-05-31T08:24:06.232Z,1004.88
2016-05-31T08:25:06.172Z,1004.95
2016-05-31T08:26:06.144Z,1004.96
2016-05-31T08:27:06.099Z,1005
2016-05-31T08:28:06.055Z,1005
2016-05-31T08:29:05.995Z,1004.99
2016-05-31T08:30:05.952Z,1005.02
2016-05-31T08:31:05.907Z,1005.05
2016-05-31T08:32:05.910Z,1005.09
2016-05-31T08:33:05.818Z,1005.06
2016-05-31T08:34:05.774Z,1005.11
2016-05-31T08:35:05.730Z,1005.15
2016-05-31T08:36:05.686Z,1005.14
2016-05-31T08:37:05.643Z,1005.16
2016-05-31T08:38:08.598Z,1005.16
2016-05-31T08:39:05.554Z,1005.15
2016-05-31T08:40:05.525Z,1005.14
2016-05-31T08:41:05.465Z,1005.13
2016-05-31T08:42:05.421Z,1005.19
2016-05-31T08:43:05.376Z,1005.17
2016-05-31T08:44:05.379Z,1005.2
2016-05-31T08:45:05.289Z,1005.2
2016-05-31T08:46:05.244Z,1005.21
2016-05-31T08:47:08.200Z,1005.21
2016-05-31T08:48:08.172Z,1005.2
2016-05-31T08:49:05.112Z,1005.19
2016-05-31T08:50:08.083Z,1005.27
2016-05-31T08:51:05.023Z,1005.24
2016-05-31T08:52:04.979Z,1005.25
2016-05-31T08:53:04.935Z,1005.34
2016-05-31T08:54:04.891Z,1005.38
2016-05-31T08:55:04.847Z,1005.37
2016-05-31T08:56:04.802Z,1005.39
2016-05-31T08:57:04.743Z,1005.37
2016-05-31T08:58:04.917Z,1005.42
2016-05-31T08:59:04.654Z,1005.4
2016-05-31T09:00:04.626Z,1005.49
2016-05-31T09:01:04.582Z,1005.44
2016-05-31T09:02:04.537Z,1005.49
2016-05-31T09:03:04.477Z,1005.43
2016-05-31T09:04:04.449Z,1005.45
2016-05-31T09:05:04.404Z,1005.43
2016-05-31T09:06:04.360Z,1005.45
2016-05-31T09:07:04.520Z,1005.4
2016-05-31T09:08:04.335Z,1005.45
2016-05-31T09:09:04.228Z,1005.41
2016-05-31T09:10:04.199Z,1005.4
2016-05-31T09:11:04.170Z,1005.38
2016-05-31T09:12:04.142Z,1005.37
2016-05-31T09:13:04.036Z,1005.41
2016-05-31T09:14:04.007Z,1005.42
2016-05-31T09:15:03.947Z,1005.34
2016-05-31T09:16:03.903Z,1005.43
2016-05-31T09:17:04.077Z,1005.36
2016-05-31T09:18:03.815Z,1005.42
2016-05-31T09:19:03.770Z,1005.48
2016-05-31T09:20:03.742Z,1005.45
2016-05-31T09:21:03.697Z,1005.46
2016-05-31T09:22:03.639Z,1005.47
2016-05-31T09:23:03.608Z,1005.44
2016-05-31T09:24:03.550Z,1005.46
2016-05-31T09:25:03.521Z,1005.47
2016-05-31T09:26:03.461Z,1005.47
2016-05-31T09:27:03.416Z,1005.44
2016-05-31T09:28:06.389Z,1005.44
2016-05-31T09:29:06.344Z,1005.42
2016-05-31T09:30:03.300Z,1005.43
2016-05-31T09:31:03.255Z,1005.44
2016-05-31T09:32:03.197Z,1005.46
2016-05-31T09:33:06.167Z,1005.48
2016-05-31T09:34:03.124Z,1005.46
2016-05-31T09:35:06.173Z,1005.5
2016-05-31T09:36:06.050Z,1005.56
2016-05-31T09:37:02.972Z,1005.58
2016-05-31T09:38:05.947Z,1005.6
2016-05-31T09:39:02.900Z,1005.58
2016-05-31T09:40:02.856Z,1005.63
2016-05-31T09:41:02.827Z,1005.64
2016-05-31T09:42:03.173Z,1005.65
2016-05-31T09:43:02.723Z,1005.59
2016-05-31T09:44:02.678Z,1005.62
2016-05-31T09:45:02.634Z,1005.65
2016-05-31T09:46:02.575Z,1005.66
2016-05-31T09:47:02.546Z,1005.72
2016-05-31T09:48:05.520Z,1005.68
2016-05-31T09:49:02.458Z,1005.64
2016-05-31T09:50:02.414Z,1005.7
2016-05-31T09:51:02.370Z,1005.72
2016-05-31T09:52:02.403Z,1005.75
2016-05-31T09:53:02.281Z,1005.7
2016-05-31T09:54:02.236Z,1005.73
2016-05-31T09:55:02.192Z,1005.74
2016-05-31T09:56:02.164Z,1005.79
2016-05-31T09:57:02.136Z,1005.74
2016-05-31T09:58:02.075Z,1005.75
2016-05-31T09:59:02.016Z,1005.83
2016-05-31T10:00:04.991Z,1005.8
2016-05-31T10:01:01.928Z,1005.81
2016-05-31T10:02:01.883Z,1005.78
2016-05-31T10:03:01.839Z,1005.81
2016-05-31T10:04:04.813Z,1005.8
2016-05-31T10:05:01.751Z,1005.82
2016-05-31T10:06:01.721Z,1005.82
2016-05-31T10:07:01.663Z,1005.86
2016-05-31T10:08:01.618Z,1005.83
2016-05-31T10:09:01.574Z,1005.89
2016-05-31T10:10:01.545Z,1005.89
2016-05-31T10:11:01.502Z,1005.94
2016-05-31T10:12:01.457Z,1005.92
2016-05-31T10:13:01.413Z,1005.96
2016-05-31T10:14:01.368Z,1005.97
2016-05-31T10:15:01.325Z,1005.9
2016-05-31T10:16:04.284Z,1005.94
2016-05-31T10:17:01.237Z,1005.95
2016-05-31T10:18:04.195Z,1005.94
2016-05-31T10:19:01.148Z,1005.9
2016-05-31T10:20:01.103Z,1005.95
2016-05-31T10:21:01.060Z,1005.97
2016-05-31T10:22:01.031Z,1005.98
2016-05-31T10:23:03.986Z,1005.99
2016-05-31T10:24:03.943Z,1005.99
2016-05-31T10:25:03.898Z,1006.03
2016-05-31T10:26:00.854Z,1006.03
2016-05-31T10:27:00.794Z,1006.07
2016-05-31T10:28:00.766Z,1006.09
2016-05-31T10:29:00.722Z,1006.1
2016-05-31T10:30:03.677Z,1006.09
2016-05-31T10:31:00.633Z,1006.08
2016-05-31T10:32:00.589Z,1006.06
2016-05-31T10:33:03.544Z,1006.09
2016-05-31T10:34:00.501Z,1006.08
2016-05-31T10:35:00.457Z,1006.09
2016-05-31T10:36:00.412Z,1006.09
2016-05-31T10:37:00.352Z,1006.07
2016-05-31T10:38:00.324Z,1006.1
2016-05-31T10:39:00.280Z,1006.11
2016-05-31T10:40:00.235Z,1006.13
2016-05-31T10:41:00.191Z,1006.12
2016-05-31T10:42:00.148Z,1006.19
2016-05-31T10:43:00.103Z,1006.17
2016-05-31T10:44:00.059Z,1006.17
2016-05-31T10:45:00.015Z,1006.2
2016-05-31T10:45:59.986Z,1006.19
2016-05-31T10:46:59.942Z,1006.18
2016-05-31T10:47:59.882Z,1006.2
2016-05-31T10:49:00.041Z,1006.23
2016-05-31T10:49:59.795Z,1006.2
2016-05-31T10:50:59.765Z,1006.23
2016-05-31T10:51:59.721Z,1006.22
2016-05-31T10:52:59.677Z,1006.26
2016-05-31T10:54:02.632Z,1006.28
2016-05-31T10:55:02.589Z,1006.23
2016-05-31T10:55:59.544Z,1006.24
2016-05-31T10:56:59.500Z,1006.27
2016-05-31T10:57:59.456Z,1006.22
2016-05-31T10:59:02.630Z,1006.26
2016-05-31T10:59:59.367Z,1006.24
2016-05-31T11:01:02.730Z,1006.26
2016-05-31T11:01:59.279Z,1006.3
2016-05-31T11:02:59.235Z,1006.36
2016-05-31T11:03:59.191Z,1006.35
2016-05-31T11:04:59.146Z,1006.35
2016-05-31T11:05:59.118Z,1006.33
2016-05-31T11:06:59.058Z,1006.36
2016-05-31T11:07:59.263Z,1006.36
2016-05-31T11:08:58.986Z,1006.4
2016-05-31T11:09:58.926Z,1006.39
2016-05-31T11:10:58.881Z,1006.38
2016-05-31T11:11:58.837Z,1006.36
2016-05-31T11:12:59.231Z,1006.36
2016-05-31T11:13:58.748Z,1006.38
2016-05-31T11:14:58.940Z,1006.37
2016-05-31T11:15:58.660Z,1006.43
2016-05-31T11:16:58.617Z,1006.39
2016-05-31T11:17:58.635Z,1006.42
2016-05-31T11:18:58.543Z,1006.41
2016-05-31T11:19:58.484Z,1006.38
2016-05-31T11:20:58.455Z,1006.42
2016-05-31T11:21:58.411Z,1006.39
2016-05-31T11:22:58.398Z,1006.39
2016-05-31T11:23:58.339Z,1006.41
2016-05-31T11:25:01.278Z,1006.43
2016-05-31T11:25:58.234Z,1006.5
2016-05-31T11:26:58.190Z,1006.47
2016-05-31T11:27:58.146Z,1006.48
2016-05-31T11:28:58.102Z,1006.49
2016-05-31T11:29:58.464Z,1006.55
2016-05-31T11:30:58.060Z,1006.5
2016-05-31T11:31:57.969Z,1006.51
2016-05-31T11:32:58.002Z,1006.55
2016-05-31T11:33:57.913Z,1006.55
2016-05-31T11:34:57.836Z,1006.56
2016-05-31T11:35:57.793Z,1006.55
2016-05-31T11:36:57.763Z,1006.57
2016-05-31T11:37:57.704Z,1006.62
2016-05-31T11:38:57.675Z,1006.64
2016-05-31T11:39:57.631Z,1006.7
2016-05-31T11:40:57.572Z,1006.72
2016-05-31T11:41:57.527Z,1006.72
2016-05-31T11:42:57.498Z,1006.72
2016-05-31T11:43:57.658Z,1006.72
2016-05-31T11:44:57.395Z,1006.72
2016-05-31T11:45:57.366Z,1006.73
2016-05-31T11:46:57.307Z,1006.74
2016-05-31T11:47:57.262Z,1006.76
2016-05-31T11:48:57.233Z,1006.73
2016-05-31T11:49:57.189Z,1006.72
2016-05-31T11:51:00.145Z,1006.76
2016-05-31T11:51:57.086Z,1006.73
2016-05-31T11:52:57.089Z,1006.74
2016-05-31T11:54:00.012Z,1006.77
2016-05-31T11:54:56.969Z,1006.81
2016-05-31T11:55:56.924Z,1006.77
2016-05-31T11:56:56.880Z,1006.79
2016-05-31T11:57:56.836Z,1006.82
2016-05-31T11:58:56.792Z,1006.89
2016-05-31T11:59:56.747Z,1006.85
2016-05-31T12:00:56.703Z,1006.86
2016-05-31T12:01:56.658Z,1006.88
2016-05-31T12:02:56.615Z,1006.93
2016-05-31T12:03:56.759Z,1006.9
2016-05-31T12:04:56.730Z,1006.92
2016-05-31T12:05:56.483Z,1006.88
2016-05-31T12:06:56.422Z,1006.89
2016-05-31T12:07:56.471Z,1006.89